sensor_id;sensor_type;location;lat;lon;timestamp;P1;durP1;ratioP1;P2;durP2;ratioP2
18834;SDS011;9546;59.262;18.036;2023-08-20T00:00:01;4.35;;;2.85;;
18834;SDS011;9546;59.262;18.036;2023-08-20T00:02:28;3.92;;;3.47;;
18834;SDS011;9546;59.262;18.036;2023-08-20T00:04:58;4.57;;;2.47;;
18834;SDS011;9546;59.262;18.036;2023-08-20T00:07:25;4.32;;;2.70;;
18834;SDS011;9546;59.262;18.036;2023-08-20T00:09:51;3.35;;;2.42;;
18834;SDS011;9546;59.262;18.036;2023-08-20T00:12:18;3.33;;;2.63;;
18834;SDS011;9546;59.262;18.036;2023-08-20T00:14:55;4.20;;;2.15;;
18834;SDS011;9546;59.262;18.036;2023-08-20T00:17:24;5.03;;;2.30;;
18834;SDS011;9546;59.262;18.036;2023-08-20T00:19:52;2.45;;;2.20;;
18834;SDS011;9546;59.262;18.036;2023-08-20T00:22:19;3.30;;;2.40;;
18834;SDS011;9546;59.262;18.036;2023-08-20T00:24:47;3.40;;;2.15;;
18834;SDS011;9546;59.262;18.036;2023-08-20T00:27:14;3.05;;;2.20;;
18834;SDS011;9546;59.262;18.036;2023-08-20T00:29:40;3.53;;;2.50;;
18834;SDS011;9546;59.262;18.036;2023-08-20T00:32:07;2.75;;;1.95;;
18834;SDS011;9546;59.262;18.036;2023-08-20T00:34:35;4.10;;;2.55;;
18834;SDS011;9546;59.262;18.036;2023-08-20T00:37:01;2.63;;;2.40;;
18834;SDS011;9546;59.262;18.036;2023-08-20T00:39:28;3.20;;;2.33;;
18834;SDS011;9546;59.262;18.036;2023-08-20T00:41:55;3.35;;;2.30;;
18834;SDS011;9546;59.262;18.036;2023-08-20T00:44:21;2.33;;;2.10;;
18834;SDS011;9546;59.262;18.036;2023-08-20T00:46:48;3.58;;;2.05;;
18834;SDS011;9546;59.262;18.036;2023-08-20T00:49:15;4.03;;;2.25;;
18834;SDS011;9546;59.262;18.036;2023-08-20T00:51:43;3.17;;;2.22;;
18834;SDS011;9546;59.262;18.036;2023-08-20T00:54:10;4.47;;;2.40;;
18834;SDS011;9546;59.262;18.036;2023-08-20T00:56:37;2.60;;;1.85;;
18834;SDS011;9546;59.262;18.036;2023-08-20T00:59:04;2.92;;;2.28;;
18834;SDS011;9546;59.262;18.036;2023-08-20T01:01:31;2.33;;;2.05;;
18834;SDS011;9546;59.262;18.036;2023-08-20T01:03:58;4.35;;;2.30;;
18834;SDS011;9546;59.262;18.036;2023-08-20T01:06:27;3.15;;;2.30;;
18834;SDS011;9546;59.262;18.036;2023-08-20T01:08:59;3.67;;;2.20;;
18834;SDS011;9546;59.262;18.036;2023-08-20T01:11:29;3.65;;;2.28;;
18834;SDS011;9546;59.262;18.036;2023-08-20T01:13:55;2.75;;;2.40;;
18834;SDS011;9546;59.262;18.036;2023-08-20T01:16:24;3.10;;;2.38;;
18834;SDS011;9546;59.262;18.036;2023-08-20T01:18:50;2.42;;;2.22;;
18834;SDS011;9546;59.262;18.036;2023-08-20T01:21:22;2.72;;;2.08;;
18834;SDS011;9546;59.262;18.036;2023-08-20T01:24:09;2.15;;;1.80;;
18834;SDS011;9546;59.262;18.036;2023-08-20T01:26:43;1.85;;;1.58;;
18834;SDS011;9546;59.262;18.036;2023-08-20T01:29:16;2.55;;;2.00;;
18834;SDS011;9546;59.262;18.036;2023-08-20T01:31:43;2.92;;;2.28;;
18834;SDS011;9546;59.262;18.036;2023-08-20T01:34:10;3.28;;;2.05;;
18834;SDS011;9546;59.262;18.036;2023-08-20T01:36:38;3.85;;;1.88;;
18834;SDS011;9546;59.262;18.036;2023-08-20T01:39:04;2.45;;;1.83;;
18834;SDS011;9546;59.262;18.036;2023-08-20T01:41:31;2.58;;;2.05;;
18834;SDS011;9546;59.262;18.036;2023-08-20T01:43:58;2.38;;;1.85;;
18834;SDS011;9546;59.262;18.036;2023-08-20T01:46:26;3.08;;;2.25;;
18834;SDS011;9546;59.262;18.036;2023-08-20T01:48:53;2.70;;;2.03;;
18834;SDS011;9546;59.262;18.036;2023-08-20T01:51:19;1.98;;;1.88;;
18834;SDS011;9546;59.262;18.036;2023-08-20T01:53:46;3.58;;;2.10;;
18834;SDS011;9546;59.262;18.036;2023-08-20T01:56:12;2.22;;;1.90;;
18834;SDS011;9546;59.262;18.036;2023-08-20T01:58:39;2.65;;;1.90;;
18834;SDS011;9546;59.262;18.036;2023-08-20T02:01:06;2.13;;;1.73;;
18834;SDS011;9546;59.262;18.036;2023-08-20T02:03:35;2.05;;;1.52;;
18834;SDS011;9546;59.262;18.036;2023-08-20T02:06:02;2.20;;;1.90;;
18834;SDS011;9546;59.262;18.036;2023-08-20T02:08:29;3.60;;;2.05;;
18834;SDS011;9546;59.262;18.036;2023-08-20T02:10:59;3.05;;;2.10;;
18834;SDS011;9546;59.262;18.036;2023-08-20T02:13:26;2.78;;;2.00;;
18834;SDS011;9546;59.262;18.036;2023-08-20T02:15:57;1.88;;;1.70;;
18834;SDS011;9546;59.262;18.036;2023-08-20T02:18:23;2.35;;;1.70;;
18834;SDS011;9546;59.262;18.036;2023-08-20T02:20:51;2.53;;;2.03;;
18834;SDS011;9546;59.262;18.036;2023-08-20T02:23:17;2.08;;;1.65;;
18834;SDS011;9546;59.262;18.036;2023-08-20T02:25:44;1.77;;;1.67;;
18834;SDS011;9546;59.262;18.036;2023-08-20T02:28:11;1.60;;;1.50;;
18834;SDS011;9546;59.262;18.036;2023-08-20T02:30:39;2.08;;;1.80;;
18834;SDS011;9546;59.262;18.036;2023-08-20T02:33:05;1.85;;;1.75;;
18834;SDS011;9546;59.262;18.036;2023-08-20T02:35:32;2.15;;;1.95;;
18834;SDS011;9546;59.262;18.036;2023-08-20T02:38:00;2.72;;;1.80;;
18834;SDS011;9546;59.262;18.036;2023-08-20T02:40:26;2.58;;;1.73;;
18834;SDS011;9546;59.262;18.036;2023-08-20T02:42:53;2.58;;;1.70;;
18834;SDS011;9546;59.262;18.036;2023-08-20T02:45:19;1.75;;;1.65;;
18834;SDS011;9546;59.262;18.036;2023-08-20T02:47:46;2.20;;;1.90;;
18834;SDS011;9546;59.262;18.036;2023-08-20T02:50:12;4.13;;;1.67;;
18834;SDS011;9546;59.262;18.036;2023-08-20T02:52:39;2.20;;;1.73;;
18834;SDS011;9546;59.262;18.036;2023-08-20T02:55:07;2.70;;;2.00;;
18834;SDS011;9546;59.262;18.036;2023-08-20T02:57:34;2.53;;;1.70;;
18834;SDS011;9546;59.262;18.036;2023-08-20T03:00:01;2.97;;;1.75;;
18834;SDS011;9546;59.262;18.036;2023-08-20T03:02:27;3.38;;;1.63;;
18834;SDS011;9546;59.262;18.036;2023-08-20T03:04:55;3.22;;;1.75;;
18834;SDS011;9546;59.262;18.036;2023-08-20T03:07:21;3.17;;;1.83;;
18834;SDS011;9546;59.262;18.036;2023-08-20T03:09:48;1.60;;;1.50;;
18834;SDS011;9546;59.262;18.036;2023-08-20T03:12:16;1.58;;;1.48;;
18834;SDS011;9546;59.262;18.036;2023-08-20T03:14:42;2.83;;;1.88;;
18834;SDS011;9546;59.262;18.036;2023-08-20T03:17:08;3.65;;;1.75;;
18834;SDS011;9546;59.262;18.036;2023-08-20T03:19:34;2.50;;;1.65;;
18834;SDS011;9546;59.262;18.036;2023-08-20T03:22:01;1.73;;;1.50;;
18834;SDS011;9546;59.262;18.036;2023-08-20T03:24:28;2.45;;;1.77;;
18834;SDS011;9546;59.262;18.036;2023-08-20T03:26:54;1.55;;;1.45;;
18834;SDS011;9546;59.262;18.036;2023-08-20T03:29:22;1.75;;;1.65;;
18834;SDS011;9546;59.262;18.036;2023-08-20T03:31:48;1.70;;;1.60;;
18834;SDS011;9546;59.262;18.036;2023-08-20T03:34:15;2.63;;;1.63;;
18834;SDS011;9546;59.262;18.036;2023-08-20T03:36:42;1.63;;;1.52;;
18834;SDS011;9546;59.262;18.036;2023-08-20T03:39:08;1.88;;;1.63;;
18834;SDS011;9546;59.262;18.036;2023-08-20T03:41:35;2.13;;;1.92;;
18834;SDS011;9546;59.262;18.036;2023-08-20T03:44:01;1.65;;;1.40;;
18834;SDS011;9546;59.262;18.036;2023-08-20T03:46:30;5.32;;;1.90;;
18834;SDS011;9546;59.262;18.036;2023-08-20T03:48:57;1.85;;;1.63;;
18834;SDS011;9546;59.262;18.036;2023-08-20T03:51:23;1.75;;;1.58;;
18834;SDS011;9546;59.262;18.036;2023-08-20T03:53:50;1.98;;;1.63;;
18834;SDS011;9546;59.262;18.036;2023-08-20T03:56:16;2.80;;;1.85;;
18834;SDS011;9546;59.262;18.036;2023-08-20T03:58:42;2.85;;;1.70;;
18834;SDS011;9546;59.262;18.036;2023-08-20T04:01:09;2.42;;;1.80;;
18834;SDS011;9546;59.262;18.036;2023-08-20T04:03:37;1.92;;;1.83;;
18834;SDS011;9546;59.262;18.036;2023-08-20T04:06:03;2.05;;;1.73;;
18834;SDS011;9546;59.262;18.036;2023-08-20T04:08:30;1.60;;;1.50;;
18834;SDS011;9546;59.262;18.036;2023-08-20T04:10:56;1.63;;;1.52;;
18834;SDS011;9546;59.262;18.036;2023-08-20T04:13:23;2.22;;;1.50;;
18834;SDS011;9546;59.262;18.036;2023-08-20T04:15:51;2.38;;;1.70;;
18834;SDS011;9546;59.262;18.036;2023-08-20T04:18:18;1.73;;;1.63;;
18834;SDS011;9546;59.262;18.036;2023-08-20T04:20:46;1.80;;;1.70;;
18834;SDS011;9546;59.262;18.036;2023-08-20T04:23:13;2.20;;;1.60;;
18834;SDS011;9546;59.262;18.036;2023-08-20T04:25:39;2.30;;;1.23;;
18834;SDS011;9546;59.262;18.036;2023-08-20T04:28:06;1.98;;;1.60;;
18834;SDS011;9546;59.262;18.036;2023-08-20T04:30:34;2.17;;;1.80;;
18834;SDS011;9546;59.262;18.036;2023-08-20T04:33:00;1.70;;;1.60;;
18834;SDS011;9546;59.262;18.036;2023-08-20T04:35:27;1.42;;;1.33;;
18834;SDS011;9546;59.262;18.036;2023-08-20T04:37:55;2.38;;;1.50;;
18834;SDS011;9546;59.262;18.036;2023-08-20T04:40:21;1.88;;;1.65;;
18834;SDS011;9546;59.262;18.036;2023-08-20T04:42:48;1.67;;;1.58;;
18834;SDS011;9546;59.262;18.036;2023-08-20T04:45:14;1.67;;;1.42;;
18834;SDS011;9546;59.262;18.036;2023-08-20T04:47:43;1.83;;;1.63;;
18834;SDS011;9546;59.262;18.036;2023-08-20T04:50:09;2.50;;;1.67;;
18834;SDS011;9546;59.262;18.036;2023-08-20T04:52:36;3.30;;;1.60;;
18834;SDS011;9546;59.262;18.036;2023-08-20T04:55:04;2.92;;;1.70;;
18834;SDS011;9546;59.262;18.036;2023-08-20T04:57:31;3.80;;;2.00;;
18834;SDS011;9546;59.262;18.036;2023-08-20T04:59:57;2.47;;;1.83;;
18834;SDS011;9546;59.262;18.036;2023-08-20T05:02:24;3.17;;;1.55;;
18834;SDS011;9546;59.262;18.036;2023-08-20T05:04:50;1.83;;;1.63;;
18834;SDS011;9546;59.262;18.036;2023-08-20T05:07:17;2.78;;;1.63;;
18834;SDS011;9546;59.262;18.036;2023-08-20T05:09:44;1.88;;;1.67;;
18834;SDS011;9546;59.262;18.036;2023-08-20T05:12:12;3.13;;;1.50;;
18834;SDS011;9546;59.262;18.036;2023-08-20T05:14:38;2.30;;;1.60;;
18834;SDS011;9546;59.262;18.036;2023-08-20T05:17:05;2.47;;;1.70;;
18834;SDS011;9546;59.262;18.036;2023-08-20T05:19:31;3.25;;;2.03;;
18834;SDS011;9546;59.262;18.036;2023-08-20T05:21:58;2.85;;;1.77;;
18834;SDS011;9546;59.262;18.036;2023-08-20T05:24:24;2.28;;;1.30;;
18834;SDS011;9546;59.262;18.036;2023-08-20T05:27:03;2.03;;;1.80;;
18834;SDS011;9546;59.262;18.036;2023-08-20T05:29:31;2.20;;;1.75;;
18834;SDS011;9546;59.262;18.036;2023-08-20T05:31:57;2.03;;;1.67;;
18834;SDS011;9546;59.262;18.036;2023-08-20T05:34:24;2.03;;;1.40;;
18834;SDS011;9546;59.262;18.036;2023-08-20T05:36:50;2.35;;;1.70;;
18834;SDS011;9546;59.262;18.036;2023-08-20T05:39:17;1.48;;;1.38;;
18834;SDS011;9546;59.262;18.036;2023-08-20T05:41:43;3.25;;;1.70;;
18834;SDS011;9546;59.262;18.036;2023-08-20T05:44:10;2.30;;;2.10;;
18834;SDS011;9546;59.262;18.036;2023-08-20T05:46:38;3.67;;;1.42;;
18834;SDS011;9546;59.262;18.036;2023-08-20T05:49:06;1.63;;;1.52;;
18834;SDS011;9546;59.262;18.036;2023-08-20T05:51:32;4.75;;;2.00;;
18834;SDS011;9546;59.262;18.036;2023-08-20T05:53:59;1.80;;;1.70;;
18834;SDS011;9546;59.262;18.036;2023-08-20T05:56:25;2.05;;;1.42;;
18834;SDS011;9546;59.262;18.036;2023-08-20T05:58:51;2.63;;;1.52;;
18834;SDS011;9546;59.262;18.036;2023-08-20T06:01:18;2.58;;;1.58;;
18834;SDS011;9546;59.262;18.036;2023-08-20T06:03:46;1.48;;;1.35;;
18834;SDS011;9546;59.262;18.036;2023-08-20T06:06:12;2.60;;;1.55;;
18834;SDS011;9546;59.262;18.036;2023-08-20T06:08:39;2.00;;;1.30;;
18834;SDS011;9546;59.262;18.036;2023-08-20T06:11:05;1.48;;;1.38;;
18834;SDS011;9546;59.262;18.036;2023-08-20T06:13:32;2.47;;;1.40;;
18834;SDS011;9546;59.262;18.036;2023-08-20T06:15:58;1.70;;;1.33;;
18834;SDS011;9546;59.262;18.036;2023-08-20T06:18:25;2.95;;;1.60;;
18834;SDS011;9546;59.262;18.036;2023-08-20T06:20:53;1.75;;;1.40;;
18834;SDS011;9546;59.262;18.036;2023-08-20T06:23:19;1.50;;;1.40;;
18834;SDS011;9546;59.262;18.036;2023-08-20T06:25:45;1.30;;;1.20;;
18834;SDS011;9546;59.262;18.036;2023-08-20T06:28:12;2.33;;;1.40;;
18834;SDS011;9546;59.262;18.036;2023-08-20T06:30:38;1.50;;;1.40;;
18834;SDS011;9546;59.262;18.036;2023-08-20T06:33:05;1.33;;;1.23;;
18834;SDS011;9546;59.262;18.036;2023-08-20T06:35:32;1.83;;;1.50;;
18834;SDS011;9546;59.262;18.036;2023-08-20T06:38:00;1.67;;;1.35;;
18834;SDS011;9546;59.262;18.036;2023-08-20T06:40:27;1.85;;;1.27;;
18834;SDS011;9546;59.262;18.036;2023-08-20T06:42:53;1.60;;;1.50;;
18834;SDS011;9546;59.262;18.036;2023-08-20T06:45:20;2.13;;;1.40;;
18834;SDS011;9546;59.262;18.036;2023-08-20T06:47:46;2.17;;;1.10;;
18834;SDS011;9546;59.262;18.036;2023-08-20T06:50:13;2.33;;;1.27;;
18834;SDS011;9546;59.262;18.036;2023-08-20T06:52:39;2.65;;;1.40;;
18834;SDS011;9546;59.262;18.036;2023-08-20T06:55:07;1.58;;;1.00;;
18834;SDS011;9546;59.262;18.036;2023-08-20T06:57:34;1.73;;;1.40;;
18834;SDS011;9546;59.262;18.036;2023-08-20T07:00:00;1.50;;;1.40;;
18834;SDS011;9546;59.262;18.036;2023-08-20T07:02:29;1.73;;;1.30;;
18834;SDS011;9546;59.262;18.036;2023-08-20T07:04:55;3.30;;;1.52;;
18834;SDS011;9546;59.262;18.036;2023-08-20T07:07:21;3.80;;;1.30;;
18834;SDS011;9546;59.262;18.036;2023-08-20T07:09:48;2.45;;;1.38;;
18834;SDS011;9546;59.262;18.036;2023-08-20T07:12:16;1.30;;;1.10;;
18834;SDS011;9546;59.262;18.036;2023-08-20T07:14:42;1.45;;;1.20;;
18834;SDS011;9546;59.262;18.036;2023-08-20T07:17:09;2.20;;;1.23;;
18834;SDS011;9546;59.262;18.036;2023-08-20T07:19:36;1.52;;;1.20;;
18834;SDS011;9546;59.262;18.036;2023-08-20T07:22:02;1.48;;;1.35;;
18834;SDS011;9546;59.262;18.036;2023-08-20T07:24:29;1.67;;;1.17;;
18834;SDS011;9546;59.262;18.036;2023-08-20T07:26:59;1.60;;;1.50;;
18834;SDS011;9546;59.262;18.036;2023-08-20T07:29:29;2.00;;;1.67;;
18834;SDS011;9546;59.262;18.036;2023-08-20T07:31:56;1.40;;;1.10;;
18834;SDS011;9546;59.262;18.036;2023-08-20T07:34:22;2.92;;;2.00;;
18834;SDS011;9546;59.262;18.036;2023-08-20T07:36:49;1.40;;;1.30;;
18834;SDS011;9546;59.262;18.036;2023-08-20T07:39:16;1.40;;;1.20;;
18834;SDS011;9546;59.262;18.036;2023-08-20T07:41:42;3.45;;;1.35;;
18834;SDS011;9546;59.262;18.036;2023-08-20T07:44:09;2.35;;;1.30;;
18834;SDS011;9546;59.262;18.036;2023-08-20T07:46:37;2.38;;;1.30;;
18834;SDS011;9546;59.262;18.036;2023-08-20T07:49:03;2.65;;;1.42;;
18834;SDS011;9546;59.262;18.036;2023-08-20T07:51:30;1.42;;;1.27;;
18834;SDS011;9546;59.262;18.036;2023-08-20T07:53:56;1.58;;;1.27;;
18834;SDS011;9546;59.262;18.036;2023-08-20T07:56:24;3.63;;;1.17;;
18834;SDS011;9546;59.262;18.036;2023-08-20T07:58:51;1.65;;;1.40;;
18834;SDS011;9546;59.262;18.036;2023-08-20T08:01:17;2.90;;;1.58;;
18834;SDS011;9546;59.262;18.036;2023-08-20T08:03:45;3.90;;;2.83;;
18834;SDS011;9546;59.262;18.036;2023-08-20T08:06:11;2.13;;;1.60;;
18834;SDS011;9546;59.262;18.036;2023-08-20T08:11:05;2.47;;;1.50;;
18834;SDS011;9546;59.262;18.036;2023-08-20T08:13:31;2.72;;;1.60;;
18834;SDS011;9546;59.262;18.036;2023-08-20T08:15:57;3.67;;;1.67;;
18834;SDS011;9546;59.262;18.036;2023-08-20T08:18:24;2.20;;;1.60;;
18834;SDS011;9546;59.262;18.036;2023-08-20T08:20:52;1.83;;;1.63;;
18834;SDS011;9546;59.262;18.036;2023-08-20T08:23:18;1.95;;;1.40;;
18834;SDS011;9546;59.262;18.036;2023-08-20T08:25:45;2.10;;;1.73;;
18834;SDS011;9546;59.262;18.036;2023-08-20T08:28:12;2.42;;;1.55;;
18834;SDS011;9546;59.262;18.036;2023-08-20T08:30:38;2.13;;;1.60;;
18834;SDS011;9546;59.262;18.036;2023-08-20T08:33:05;1.83;;;1.73;;
18834;SDS011;9546;59.262;18.036;2023-08-20T08:35:32;1.73;;;1.55;;
18834;SDS011;9546;59.262;18.036;2023-08-20T08:37:59;2.38;;;1.60;;
18834;SDS011;9546;59.262;18.036;2023-08-20T08:40:28;2.10;;;1.75;;
18834;SDS011;9546;59.262;18.036;2023-08-20T08:42:54;1.58;;;1.42;;
18834;SDS011;9546;59.262;18.036;2023-08-20T08:45:21;2.60;;;1.88;;
18834;SDS011;9546;59.262;18.036;2023-08-20T08:47:48;1.77;;;1.67;;
18834;SDS011;9546;59.262;18.036;2023-08-20T08:50:15;1.85;;;1.70;;
18834;SDS011;9546;59.262;18.036;2023-08-20T08:52:42;3.92;;;2.03;;
18834;SDS011;9546;59.262;18.036;2023-08-20T08:55:10;1.75;;;1.38;;
18834;SDS011;9546;59.262;18.036;2023-08-20T08:57:37;3.42;;;2.38;;
18834;SDS011;9546;59.262;18.036;2023-08-20T09:00:04;3.28;;;1.92;;
18834;SDS011;9546;59.262;18.036;2023-08-20T09:02:32;2.45;;;1.70;;
18834;SDS011;9546;59.262;18.036;2023-08-20T09:04:59;2.78;;;1.88;;
18834;SDS011;9546;59.262;18.036;2023-08-20T09:07:41;3.70;;;1.92;;
18834;SDS011;9546;59.262;18.036;2023-08-20T09:10:13;2.58;;;1.92;;
18834;SDS011;9546;59.262;18.036;2023-08-20T09:12:56;3.75;;;2.13;;
18834;SDS011;9546;59.262;18.036;2023-08-20T09:15:31;2.13;;;1.58;;
18834;SDS011;9546;59.262;18.036;2023-08-20T09:18:00;2.67;;;1.67;;
18834;SDS011;9546;59.262;18.036;2023-08-20T09:20:35;2.50;;;1.80;;
18834;SDS011;9546;59.262;18.036;2023-08-20T09:23:02;2.67;;;1.60;;
18834;SDS011;9546;59.262;18.036;2023-08-20T09:25:30;3.28;;;1.88;;
18834;SDS011;9546;59.262;18.036;2023-08-20T09:27:57;5.50;;;1.90;;
18834;SDS011;9546;59.262;18.036;2023-08-20T09:30:23;5.35;;;1.73;;
18834;SDS011;9546;59.262;18.036;2023-08-20T09:33:02;1.70;;;1.50;;
18834;SDS011;9546;59.262;18.036;2023-08-20T09:35:29;3.30;;;1.83;;
18834;SDS011;9546;59.262;18.036;2023-08-20T09:37:58;2.50;;;1.77;;
18834;SDS011;9546;59.262;18.036;2023-08-20T09:40:24;2.78;;;1.90;;
18834;SDS011;9546;59.262;18.036;2023-08-20T09:42:52;3.38;;;1.90;;
18834;SDS011;9546;59.262;18.036;2023-08-20T09:45:20;2.50;;;2.00;;
18834;SDS011;9546;59.262;18.036;2023-08-20T09:47:47;2.38;;;1.85;;
18834;SDS011;9546;59.262;18.036;2023-08-20T09:50:14;2.72;;;2.08;;
18834;SDS011;9546;59.262;18.036;2023-08-20T09:52:44;1.92;;;1.65;;
18834;SDS011;9546;59.262;18.036;2023-08-20T09:55:13;2.17;;;1.60;;
18834;SDS011;9546;59.262;18.036;2023-08-20T09:57:42;2.17;;;1.50;;
18834;SDS011;9546;59.262;18.036;2023-08-20T10:00:11;3.17;;;1.80;;
18834;SDS011;9546;59.262;18.036;2023-08-20T10:02:38;2.72;;;2.08;;
18834;SDS011;9546;59.262;18.036;2023-08-20T10:05:05;2.92;;;1.70;;
18834;SDS011;9546;59.262;18.036;2023-08-20T10:07:32;3.10;;;2.00;;
18834;SDS011;9546;59.262;18.036;2023-08-20T10:10:00;2.65;;;1.80;;
18834;SDS011;9546;59.262;18.036;2023-08-20T10:12:27;2.35;;;1.70;;
18834;SDS011;9546;59.262;18.036;2023-08-20T10:14:54;4.15;;;2.08;;
18834;SDS011;9546;59.262;18.036;2023-08-20T10:17:23;2.30;;;2.10;;
18834;SDS011;9546;59.262;18.036;2023-08-20T10:19:50;2.67;;;2.10;;
18834;SDS011;9546;59.262;18.036;2023-08-20T10:22:17;4.30;;;2.15;;
18834;SDS011;9546;59.262;18.036;2023-08-20T10:24:47;3.72;;;2.15;;
18834;SDS011;9546;59.262;18.036;2023-08-20T10:27:22;2.45;;;1.83;;
18834;SDS011;9546;59.262;18.036;2023-08-20T10:29:50;2.30;;;2.05;;
18834;SDS011;9546;59.262;18.036;2023-08-20T10:32:18;2.13;;;1.85;;
18834;SDS011;9546;59.262;18.036;2023-08-20T10:34:50;1.80;;;1.58;;
18834;SDS011;9546;59.262;18.036;2023-08-20T10:37:28;3.05;;;1.58;;
18834;SDS011;9546;59.262;18.036;2023-08-20T10:39:54;2.17;;;1.98;;
18834;SDS011;9546;59.262;18.036;2023-08-20T10:42:25;2.00;;;1.83;;
18834;SDS011;9546;59.262;18.036;2023-08-20T10:45:01;2.10;;;1.90;;
18834;SDS011;9546;59.262;18.036;2023-08-20T10:47:35;1.80;;;1.70;;
18834;SDS011;9546;59.262;18.036;2023-08-20T10:50:04;1.83;;;1.52;;
18834;SDS011;9546;59.262;18.036;2023-08-20T10:52:32;5.57;;;1.77;;
18834;SDS011;9546;59.262;18.036;2023-08-20T10:55:06;1.67;;;1.58;;
18834;SDS011;9546;59.262;18.036;2023-08-20T10:57:33;2.45;;;2.03;;
18834;SDS011;9546;59.262;18.036;2023-08-20T11:00:01;3.05;;;1.75;;
18834;SDS011;9546;59.262;18.036;2023-08-20T11:02:30;3.20;;;2.00;;
18834;SDS011;9546;59.262;18.036;2023-08-20T11:04:58;2.60;;;1.80;;
18834;SDS011;9546;59.262;18.036;2023-08-20T11:07:26;2.30;;;2.10;;
18834;SDS011;9546;59.262;18.036;2023-08-20T11:09:55;2.42;;;2.22;;
18834;SDS011;9546;59.262;18.036;2023-08-20T11:12:23;2.30;;;2.10;;
18834;SDS011;9546;59.262;18.036;2023-08-20T11:14:50;2.88;;;2.47;;
18834;SDS011;9546;59.262;18.036;2023-08-20T11:17:16;2.78;;;2.17;;
18834;SDS011;9546;59.262;18.036;2023-08-20T11:19:42;3.22;;;2.70;;
18834;SDS011;9546;59.262;18.036;2023-08-20T11:22:09;3.13;;;2.25;;
18834;SDS011;9546;59.262;18.036;2023-08-20T11:24:38;3.47;;;2.65;;
18834;SDS011;9546;59.262;18.036;2023-08-20T11:27:05;2.90;;;2.70;;
18834;SDS011;9546;59.262;18.036;2023-08-20T11:29:32;2.70;;;2.50;;
18834;SDS011;9546;59.262;18.036;2023-08-20T11:31:59;3.95;;;2.83;;
18834;SDS011;9546;59.262;18.036;2023-08-20T11:34:28;4.07;;;2.70;;
18834;SDS011;9546;59.262;18.036;2023-08-20T11:36:54;4.13;;;2.92;;
18834;SDS011;9546;59.262;18.036;2023-08-20T11:39:21;3.25;;;2.40;;
18834;SDS011;9546;59.262;18.036;2023-08-20T11:41:50;3.08;;;2.60;;
18834;SDS011;9546;59.262;18.036;2023-08-20T11:44:22;2.70;;;2.50;;
18834;SDS011;9546;59.262;18.036;2023-08-20T11:46:51;3.90;;;2.85;;
18834;SDS011;9546;59.262;18.036;2023-08-20T11:49:20;3.17;;;2.50;;
18834;SDS011;9546;59.262;18.036;2023-08-20T11:51:52;4.47;;;2.78;;
18834;SDS011;9546;59.262;18.036;2023-08-20T11:54:19;4.53;;;2.38;;
18834;SDS011;9546;59.262;18.036;2023-08-20T11:56:46;3.05;;;2.63;;
18834;SDS011;9546;59.262;18.036;2023-08-20T11:59:14;3.13;;;2.60;;
18834;SDS011;9546;59.262;18.036;2023-08-20T12:01:41;3.45;;;3.15;;
18834;SDS011;9546;59.262;18.036;2023-08-20T12:04:09;5.03;;;2.75;;
18834;SDS011;9546;59.262;18.036;2023-08-20T12:06:36;3.15;;;2.80;;
18834;SDS011;9546;59.262;18.036;2023-08-20T12:09:17;3.03;;;2.70;;
18834;SDS011;9546;59.262;18.036;2023-08-20T12:11:47;3.47;;;2.72;;
18834;SDS011;9546;59.262;18.036;2023-08-20T12:14:16;3.55;;;3.25;;
18834;SDS011;9546;59.262;18.036;2023-08-20T12:16:42;3.90;;;3.22;;
18834;SDS011;9546;59.262;18.036;2023-08-20T12:19:09;3.15;;;2.63;;
18834;SDS011;9546;59.262;18.036;2023-08-20T12:21:35;3.60;;;3.30;;
18834;SDS011;9546;59.262;18.036;2023-08-20T12:24:02;4.72;;;3.00;;
18834;SDS011;9546;59.262;18.036;2023-08-20T12:26:29;4.88;;;2.70;;
18834;SDS011;9546;59.262;18.036;2023-08-20T12:28:55;3.67;;;3.00;;
18834;SDS011;9546;59.262;18.036;2023-08-20T12:31:23;3.38;;;2.80;;
18834;SDS011;9546;59.262;18.036;2023-08-20T12:33:50;3.35;;;3.05;;
18834;SDS011;9546;59.262;18.036;2023-08-20T12:36:16;4.50;;;3.88;;
18834;SDS011;9546;59.262;18.036;2023-08-20T12:38:43;3.22;;;2.92;;
18834;SDS011;9546;59.262;18.036;2023-08-20T12:41:09;3.50;;;3.20;;
18834;SDS011;9546;59.262;18.036;2023-08-20T12:43:36;4.68;;;3.55;;
18834;SDS011;9546;59.262;18.036;2023-08-20T12:46:02;4.85;;;3.30;;
18834;SDS011;9546;59.262;18.036;2023-08-20T12:48:31;3.90;;;3.50;;
18834;SDS011;9546;59.262;18.036;2023-08-20T12:51:01;3.65;;;3.35;;
18834;SDS011;9546;59.262;18.036;2023-08-20T12:53:28;3.25;;;3.03;;
18834;SDS011;9546;59.262;18.036;2023-08-20T12:55:55;3.88;;;3.47;;
18834;SDS011;9546;59.262;18.036;2023-08-20T12:58:22;4.53;;;3.40;;
18834;SDS011;9546;59.262;18.036;2023-08-20T13:00:49;3.92;;;3.55;;
18834;SDS011;9546;59.262;18.036;2023-08-20T13:03:16;4.13;;;3.50;;
18834;SDS011;9546;59.262;18.036;2023-08-20T13:05:45;3.72;;;3.33;;
18834;SDS011;9546;59.262;18.036;2023-08-20T13:08:12;3.55;;;3.25;;
18834;SDS011;9546;59.262;18.036;2023-08-20T13:10:39;4.03;;;3.33;;
18834;SDS011;9546;59.262;18.036;2023-08-20T13:13:06;3.70;;;3.33;;
18834;SDS011;9546;59.262;18.036;2023-08-20T13:15:35;5.15;;;3.67;;
18834;SDS011;9546;59.262;18.036;2023-08-20T13:18:01;5.80;;;4.90;;
18834;SDS011;9546;59.262;18.036;2023-08-20T13:20:29;4.53;;;4.13;;
18834;SDS011;9546;59.262;18.036;2023-08-20T13:22:57;4.90;;;3.72;;
18834;SDS011;9546;59.262;18.036;2023-08-20T13:25:24;4.57;;;3.97;;
18834;SDS011;9546;59.262;18.036;2023-08-20T13:27:51;4.05;;;3.75;;
18834;SDS011;9546;59.262;18.036;2023-08-20T13:30:18;4.90;;;4.00;;
18834;SDS011;9546;59.262;18.036;2023-08-20T13:32:44;4.95;;;4.45;;
18834;SDS011;9546;59.262;18.036;2023-08-20T13:35:11;5.82;;;4.60;;
18834;SDS011;9546;59.262;18.036;2023-08-20T13:37:38;4.65;;;4.25;;
18834;SDS011;9546;59.262;18.036;2023-08-20T13:40:07;5.68;;;4.45;;
18834;SDS011;9546;59.262;18.036;2023-08-20T13:42:34;5.05;;;4.53;;
18834;SDS011;9546;59.262;18.036;2023-08-20T13:45:03;6.13;;;5.30;;
18834;SDS011;9546;59.262;18.036;2023-08-20T13:47:30;5.40;;;4.90;;
18834;SDS011;9546;59.262;18.036;2023-08-20T13:49:57;5.78;;;5.20;;
18834;SDS011;9546;59.262;18.036;2023-08-20T13:52:23;7.10;;;5.75;;
18834;SDS011;9546;59.262;18.036;2023-08-20T13:54:50;8.85;;;6.13;;
18834;SDS011;9546;59.262;18.036;2023-08-20T13:57:18;7.90;;;5.68;;
18834;SDS011;9546;59.262;18.036;2023-08-20T13:59:45;7.20;;;6.50;;
18834;SDS011;9546;59.262;18.036;2023-08-20T14:02:12;8.63;;;6.72;;
18834;SDS011;9546;59.262;18.036;2023-08-20T14:04:38;10.43;;;7.15;;
18834;SDS011;9546;59.262;18.036;2023-08-20T14:07:05;6.45;;;5.78;;
18834;SDS011;9546;59.262;18.036;2023-08-20T14:09:32;8.20;;;6.00;;
18834;SDS011;9546;59.262;18.036;2023-08-20T14:12:01;6.25;;;5.63;;
18834;SDS011;9546;59.262;18.036;2023-08-20T14:14:29;7.13;;;5.90;;
18834;SDS011;9546;59.262;18.036;2023-08-20T14:16:56;6.40;;;5.70;;
18834;SDS011;9546;59.262;18.036;2023-08-20T14:19:23;7.32;;;5.97;;
18834;SDS011;9546;59.262;18.036;2023-08-20T14:21:49;6.65;;;6.05;;
18834;SDS011;9546;59.262;18.036;2023-08-20T14:24:16;8.05;;;7.22;;
18834;SDS011;9546;59.262;18.036;2023-08-20T14:26:46;8.43;;;6.03;;
18834;SDS011;9546;59.262;18.036;2023-08-20T14:29:26;6.65;;;5.80;;
18834;SDS011;9546;59.262;18.036;2023-08-20T14:31:54;7.65;;;5.93;;
18834;SDS011;9546;59.262;18.036;2023-08-20T14:34:21;7.72;;;5.45;;
18834;SDS011;9546;59.262;18.036;2023-08-20T14:36:48;8.48;;;6.07;;
18834;SDS011;9546;59.262;18.036;2023-08-20T14:39:14;6.32;;;5.70;;
18834;SDS011;9546;59.262;18.036;2023-08-20T14:41:41;9.18;;;6.78;;
18834;SDS011;9546;59.262;18.036;2023-08-20T14:44:07;6.68;;;5.97;;
18834;SDS011;9546;59.262;18.036;2023-08-20T14:46:34;7.55;;;6.40;;
18834;SDS011;9546;59.262;18.036;2023-08-20T14:49:02;8.70;;;6.35;;
18834;SDS011;9546;59.262;18.036;2023-08-20T14:51:28;6.63;;;5.78;;